Time;durP1;ratioP1;P1;durP2;ratioP2;P2;SDS_P1;SDS_P2;PMS_P1;PMS_P2;Temp;Humidity;BMP_temperature;BMP_pressure;BME280_temperature;BME280_humidity;BME280_pressure;Samples;Min_cycle;Max_cycle;Signal;HPM_P1;HPM_P2
2021/03/15 00:02:00;;;;;;;4.45;1.80;;;17.60;51.80;;;;;;4898569;29;20176;-66
2021/03/15 00:04:25;;;;;;;4.25;1.98;;;17.60;51.80;;;;;;4900102;29;20660;-67
2021/03/15 00:06:51;;;;;;;4.57;2.15;;;17.60;51.90;;;;;;4901005;29;20177;-67
2021/03/15 00:09:16;;;;;;;3.92;1.90;;;17.60;51.90;;;;;;4898361;29;20212;-66
2021/03/15 00:11:42;;;;;;;3.72;1.80;;;17.60;51.90;;;;;;4898849;29;20245;-68
2021/03/15 00:14:07;;;;;;;3.13;1.90;;;17.60;52.00;;;;;;4899951;29;20184;-65
2021/03/15 00:16:33;;;;;;;4.00;2.05;;;17.50;51.90;;;;;;4899376;29;20184;-67
2021/03/15 00:18:59;;;;;;;5.07;2.40;;;17.50;52.50;;;;;;4900115;29;20255;-69
2021/03/15 00:21:24;;;;;;;2.53;1.95;;;17.50;51.90;;;;;;4899753;29;20675;-65
2021/03/15 00:23:50;;;;;;;2.78;2.05;;;17.50;51.90;;;;;;4899335;29;20176;-65
2021/03/15 00:26:15;;;;;;;3.40;2.13;;;17.50;52.00;;;;;;4900085;29;20211;-65
2021/03/15 00:28:41;;;;;;;3.67;1.83;;;17.50;52.00;;;;;;4899588;29;20205;-68
2021/03/15 00:31:06;;;;;;;3.00;2.10;;;17.50;52.60;;;;;;4899311;29;20580;-66
2021/03/15 00:33:32;;;;;;;2.85;1.80;;;17.50;52.00;;;;;;4882789;29;20185;-67
2021/03/15 00:35:57;;;;;;;4.28;1.90;;;17.40;52.00;;;;;;4899678;29;20220;-66
2021/03/15 00:38:23;;;;;;;2.50;1.60;;;17.50;52.00;;;;;;4899052;29;20185;-65
2021/03/15 00:40:49;;;;;;;2.85;1.58;;;17.40;52.60;;;;;;4899670;29;20539;-66
2021/03/15 00:43:14;;;;;;;2.83;1.60;;;17.40;52.00;;;;;;4899135;29;20210;-67
2021/03/15 00:45:40;;;;;;;2.85;1.77;;;17.40;52.00;;;;;;4898127;29;20646;-66
2021/03/15 00:48:06;;;;;;;2.72;1.73;;;17.40;51.90;;;;;;4899523;29;20223;-68
2021/03/15 00:50:39;;;;;;;2.13;1.60;;;17.40;51.90;;;;;;4886899;29;20731;-69
2021/03/15 00:53:05;;;;;;;11.85;2.15;;;17.40;52.00;;;;;;4913238;29;20700;-69
2021/03/15 00:55:31;;;;;;;3.28;1.65;;;17.40;52.10;;;;;;4913762;29;20168;-66
2021/03/15 00:57:56;;;;;;;3.08;1.83;;;17.40;52.00;;;;;;4897603;29;20176;-67
2021/03/15 01:00:25;;;;;;;2.38;1.52;;;17.40;52.00;;;;;;4897947;29;20224;-68
2021/03/15 01:02:51;;;;;;;2.78;1.83;;;17.30;52.60;;;;;;4913835;29;20257;-67
2021/03/15 01:05:18;;;;;;;3.72;1.90;;;17.30;52.60;;;;;;4897591;29;20692;-67
2021/03/15 01:07:44;;;;;;;2.38;1.60;;;17.30;52.10;;;;;;4899068;29;20212;-67
2021/03/15 01:10:10;;;;;;;2.97;1.52;;;17.30;52.10;;;;;;4882238;29;20588;-66
2021/03/15 01:12:36;;;;;;;2.53;1.58;;;17.30;52.10;;;;;;4912915;29;20200;-67
2021/03/15 01:15:08;;;;;;;3.45;1.50;;;17.30;52.10;;;;;;4913357;29;20637;-68
2021/03/15 01:17:33;;;;;;;2.75;1.50;;;17.30;52.10;;;;;;4912838;29;20220;-68
2021/03/15 01:19:59;;;;;;;3.58;1.60;;;17.30;52.10;;;;;;4898415;29;20606;-65
2021/03/15 01:22:25;;;;;;;2.78;1.58;;;17.30;52.10;;;;;;4913244;29;20173;-68
2021/03/15 01:24:50;;;;;;;2.10;1.48;;;17.30;52.10;;;;;;4913358;29;20255;-67
2021/03/15 01:27:16;;;;;;;2.35;1.35;;;17.30;52.10;;;;;;4898252;29;20637;-66
2021/03/15 01:29:41;;;;;;;1.52;1.40;;;17.30;52.10;;;;;;4913089;29;20181;-67
2021/03/15 01:32:07;;;;;;;1.83;1.27;;;17.30;52.10;;;;;;4898599;29;20629;-66
2021/03/15 01:34:32;;;;;;;2.42;1.45;;;17.30;52.10;;;;;;4912265;29;20264;-67
2021/03/15 01:36:58;;;;;;;2.58;1.70;;;17.20;52.00;;;;;;4913218;29;20204;-67
2021/03/15 01:39:24;;;;;;;3.17;1.85;;;17.20;52.00;;;;;;4898672;29;20181;-66
2021/03/15 01:41:49;;;;;;;1.50;1.20;;;17.20;52.00;;;;;;4896787;29;20185;-65
2021/03/15 01:44:15;;;;;;;2.78;1.50;;;17.20;52.00;;;;;;4898616;29;20199;-68
2021/03/15 01:46:40;;;;;;;2.83;1.70;;;17.20;52.00;;;;;;4897476;29;20268;-66
2021/03/15 01:49:06;;;;;;;2.35;1.23;;;17.20;52.00;;;;;;4897022;29;20224;-68
2021/03/15 01:51:32;;;;;;;3.10;1.58;;;17.20;52.00;;;;;;4912640;29;20696;-67
2021/03/15 01:53:57;;;;;;;2.80;1.60;;;17.20;52.00;;;;;;4897721;29;20249;-66
2021/03/15 01:56:23;;;;;;;1.50;1.40;;;17.20;52.00;;;;;;4897194;29;20263;-68
2021/03/15 01:58:48;;;;;;;1.85;1.20;;;17.10;51.90;;;;;;4897049;29;20172;-67
2021/03/15 02:01:14;;;;;;;1.52;1.35;;;17.20;52.00;;;;;;4912110;29;20224;-67
2021/03/15 02:03:39;;;;;;;1.80;1.25;;;17.10;52.60;;;;;;4896836;29;20260;-67
2021/03/15 02:06:05;;;;;;;1.60;1.50;;;17.10;52.00;;;;;;4912553;29;20192;-67
2021/03/15 02:08:30;;;;;;;2.08;1.10;;;17.10;52.00;;;;;;4912021;29;20616;-66
2021/03/15 02:10:56;;;;;;;1.80;1.27;;;17.10;52.00;;;;;;4896826;29;20173;-66
2021/03/15 02:13:37;;;;;;;1.95;1.67;;;17.20;52.00;;;;;;4897846;29;20177;-68
2021/03/15 02:16:06;;;;;;;1.80;1.27;;;17.20;52.10;;;;;;4897456;29;20172;-66
2021/03/15 02:19:06;;;;;;;2.13;1.17;;;17.10;52.00;;;;;;4896663;29;20184;-69
2021/03/15 02:21:52;;;;;;;3.20;1.25;;;17.10;52.00;;;;;;4897761;29;20513;-69
2021/03/15 02:24:36;;;;;;;1.80;1.15;;;17.10;52.00;;;;;;4897850;29;20271;-66
2021/03/15 02:27:32;;;;;;;1.77;1.48;;;17.10;52.10;;;;;;4912406;29;20180;-68
2021/03/15 02:30:23;;;;;;;1.48;1.10;;;17.00;51.90;;;;;;4897186;29;20248;-67
2021/03/15 02:33:00;;;;;;;1.52;0.93;;;17.10;52.10;;;;;;4897865;29;20512;-67
2021/03/15 02:35:28;;;;;;;1.60;1.20;;;17.10;52.00;;;;;;4897461;29;20180;-66
2021/03/15 02:38:07;;;;;;;1.25;0.98;;;17.00;52.00;;;;;;4880385;29;20202;-66
2021/03/15 02:40:37;;;;;;;1.80;1.23;;;17.00;52.00;;;;;;4896163;29;20180;-66
2021/03/15 02:43:04;;;;;;;1.63;1.08;;;17.10;52.10;;;;;;4911492;29;20180;-67
2021/03/15 02:45:32;;;;;;;1.33;1.20;;;17.10;52.10;;;;;;4896192;29;20569;-68
2021/03/15 02:47:57;;;;;;;1.45;1.27;;;17.00;52.10;;;;;;4912065;29;20208;-67
2021/03/15 02:50:23;;;;;;;1.73;1.30;;;17.00;52.10;;;;;;4894139;29;20312;-65
2021/03/15 02:52:49;;;;;;;1.70;1.20;;;17.00;52.10;;;;;;4862316;29;20276;-66
2021/03/15 02:55:16;;;;;;;1.77;1.25;;;17.00;52.20;;;;;;4862277;29;20201;-65
2021/03/15 02:57:42;;;;;;;1.60;0.90;;;17.00;52.20;;;;;;4861400;29;20184;-68
2021/03/15 03:00:08;;;;;;;1.65;1.20;;;17.00;52.10;;;;;;4863924;29;20264;-67
2021/03/15 03:02:35;;;;;;;1.27;0.90;;;17.00;52.20;;;;;;4865781;29;20649;-68
2021/03/15 03:05:01;;;;;;;1.05;0.90;;;16.90;52.10;;;;;;4880740;29;20199;-67
2021/03/15 03:07:27;;;;;;;1.35;0.88;;;16.90;52.20;;;;;;4865544;29;20649;-67
2021/03/15 03:09:53;;;;;;;0.85;0.80;;;16.90;52.10;;;;;;4881440;29;20185;-66
2021/03/15 03:12:18;;;;;;;1.42;1.08;;;16.90;52.10;;;;;;4880561;29;20182;-66
2021/03/15 03:14:45;;;;;;;1.55;1.20;;;16.90;52.10;;;;;;4866018;29;20241;-67
2021/03/15 03:17:10;;;;;;;1.15;0.98;;;16.90;52.10;;;;;;4865869;29;20180;-66
2021/03/15 03:19:36;;;;;;;1.23;1.00;;;16.90;52.10;;;;;;4880573;29;20549;-68
2021/03/15 03:22:02;;;;;;;1.33;0.93;;;16.90;52.10;;;;;;4881245;29;20218;-66
2021/03/15 03:24:28;;;;;;;1.67;1.13;;;16.90;52.10;;;;;;4865343;29;20738;-66
2021/03/15 03:26:54;;;;;;;1.02;0.90;;;16.90;52.20;;;;;;4865144;29;20265;-66
2021/03/15 03:29:20;;;;;;;1.70;0.98;;;16.90;52.70;;;;;;4865327;29;20233;-67
2021/03/15 03:31:46;;;;;;;1.77;1.00;;;16.90;52.10;;;;;;4850053;29;20645;-67
2021/03/15 03:34:12;;;;;;;1.02;0.80;;;16.90;52.10;;;;;;4864879;29;20597;-67
2021/03/15 03:36:37;;;;;;;1.23;0.70;;;16.90;52.10;;;;;;4865209;29;20267;-66
2021/03/15 03:39:07;;;;;;;1.55;1.08;;;16.90;52.10;;;;;;4864950;29;20188;-66
2021/03/15 03:41:33;;;;;;;1.55;1.00;;;16.90;52.10;;;;;;4880799;29;20173;-66
2021/03/15 03:43:58;;;;;;;1.40;1.02;;;16.90;52.10;;;;;;4881887;29;20170;-67
2021/03/15 03:46:24;;;;;;;0.80;0.80;;;16.80;52.10;;;;;;4880081;29;20245;-68
2021/03/15 03:48:50;;;;;;;1.42;0.93;;;16.80;52.10;;;;;;4881838;29;20219;-67
2021/03/15 03:51:17;;;;;;;1.40;1.00;;;16.80;52.00;;;;;;4865346;29;20217;-68
2021/03/15 03:54:06;;;;;;;1.05;0.82;;;16.80;52.20;;;;;;4864556;29;20181;-67
2021/03/15 03:56:54;;;;;;;1.02;0.90;;;16.80;52.20;;;;;;4881598;29;20184;-67
2021/03/15 03:59:21;;;;;;;1.52;0.77;;;16.80;52.10;;;;;;4864923;29;20184;-67
2021/03/15 04:01:49;;;;;;;1.02;0.93;;;16.80;52.20;;;;;;4880075;29;20165;-67
2021/03/15 04:04:21;;;;;;;0.50;0.50;;;16.80;52.20;;;;;;4864973;29;20652;-67
2021/03/15 04:06:47;;;;;;;0.70;0.70;;;16.80;52.20;;;;;;4865121;29;20229;-67
2021/03/15 04:09:14;;;;;;;1.02;0.82;;;16.80;52.20;;;;;;4879800;29;20228;-66
2021/03/15 04:11:46;;;;;;;0.82;0.75;;;16.80;52.20;;;;;;4864334;29;20252;-67
2021/03/15 04:14:14;;;;;;;1.15;0.98;;;16.80;52.20;;;;;;4879553;29;20708;-66
2021/03/15 04:16:40;;;;;;;1.75;0.88;;;16.80;52.10;;;;;;4880197;29;20174;-68
2021/03/15 04:19:05;;;;;;;0.98;0.80;;;16.80;52.10;;;;;;4849216;29;20252;-66
2021/03/15 04:21:31;;;;;;;1.10;0.80;;;16.70;52.10;;;;;;4848360;29;20173;-67
2021/03/15 04:23:57;;;;;;;0.93;0.90;;;16.70;52.20;;;;;;4849111;29;20188;-67
2021/03/15 04:26:23;;;;;;;1.08;0.82;;;16.70;52.20;;;;;;4864349;29;20180;-66
2021/03/15 04:28:49;;;;;;;1.77;0.85;;;16.70;52.10;;;;;;4864043;29;20303;-66
2021/03/15 04:31:14;;;;;;;0.85;0.82;;;16.70;52.20;;;;;;4864658;29;20181;-67
2021/03/15 04:33:40;;;;;;;0.95;0.80;;;16.70;52.20;;;;;;4879750;29;20192;-67
2021/03/15 04:36:06;;;;;;;1.10;0.95;;;16.70;52.20;;;;;;4863826;29;20173;-66
2021/03/15 04:38:32;;;;;;;0.82;0.75;;;16.70;52.20;;;;;;4864148;29;20196;-66
2021/03/15 04:40:58;;;;;;;1.15;0.80;;;16.70;52.20;;;;;;4879809;29;20637;-67
2021/03/15 04:43:23;;;;;;;1.38;1.20;;;16.70;52.10;;;;;;4863667;29;20189;-67
2021/03/15 04:45:49;;;;;;;1.55;0.90;;;16.70;52.10;;;;;;4848839;29;20544;-67
2021/03/15 04:48:26;;;;;;;1.13;0.90;;;16.70;52.10;;;;;;4864066;29;20268;-67
2021/03/15 04:50:59;;;;;;;1.08;0.90;;;16.70;52.10;;;;;;4863493;29;20633;-67
2021/03/15 04:53:26;;;;;;;1.00;0.90;;;16.60;52.00;;;;;;4863970;29;20181;-65
2021/03/15 04:55:53;;;;;;;1.13;0.80;;;16.60;52.00;;;;;;4864014;29;20165;-68
2021/03/15 04:58:19;;;;;;;1.50;0.80;;;16.70;52.00;;;;;;4878776;29;20210;-67
2021/03/15 05:00:46;;;;;;;2.20;1.02;;;16.60;52.00;;;;;;4848689;29;20178;-67
2021/03/15 05:03:13;;;;;;;0.82;0.70;;;16.60;52.00;;;;;;4864066;29;20189;-66
2021/03/15 05:05:39;;;;;;;0.70;0.60;;;16.60;52.00;;;;;;4863053;29;20703;-67
2021/03/15 05:08:05;;;;;;;0.88;0.88;;;16.60;52.00;;;;;;4879222;29;20201;-66
2021/03/15 05:10:31;;;;;;;1.42;0.80;;;16.60;52.00;;;;;;4863083;29;20180;-66
2021/03/15 05:12:57;;;;;;;0.60;0.60;;;16.60;52.10;;;;;;4879248;29;20177;-66
2021/03/15 05:15:23;;;;;;;1.15;0.90;;;16.60;52.00;;;;;;4863592;29;20569;-67
2021/03/15 05:17:48;;;;;;;1.00;0.90;;;16.60;52.00;;;;;;4863449;29;20296;-66
2021/03/15 05:20:15;;;;;;;1.00;0.85;;;16.60;51.90;;;;;;4863721;29;20225;-66
2021/03/15 05:22:43;;;;;;;0.50;0.50;;;16.60;52.00;;;;;;4862515;29;20189;-65
2021/03/15 05:25:10;;;;;;;0.95;0.80;;;16.60;52.00;;;;;;4863392;29;20176;-67
2021/03/15 05:27:36;;;;;;;1.80;0.77;;;16.60;52.00;;;;;;4847873;29;20276;-65
2021/03/15 05:30:03;;;;;;;1.30;0.90;;;16.60;52.00;;;;;;4863517;29;20696;-66
2021/03/15 05:32:29;;;;;;;0.85;0.70;;;16.60;52.00;;;;;;4878154;29;20285;-66
2021/03/15 05:34:55;;;;;;;1.92;1.10;;;16.50;52.00;;;;;;4863455;29;20240;-66
2021/03/15 05:37:21;;;;;;;1.38;0.85;;;16.60;52.00;;;;;;4863168;29;20189;-65
2021/03/15 05:39:47;;;;;;;1.30;0.90;;;16.60;52.00;;;;;;4862791;29;20173;-65
2021/03/15 05:42:21;;;;;;;0.70;0.70;;;16.50;52.00;;;;;;4880082;29;20196;-65
2021/03/15 05:45:11;;;;;;;2.53;1.35;;;16.50;52.00;;;;;;4879807;29;20176;-67
2021/03/15 05:48:04;;;;;;;1.40;0.90;;;16.50;52.00;;;;;;4878864;29;20201;-67
2021/03/15 05:50:51;;;;;;;0.45;0.43;;;16.50;52.00;;;;;;4878518;29;20173;-64
2021/03/15 05:53:29;;;;;;;1.60;0.90;;;16.50;52.00;;;;;;4877916;29;20664;-68
2021/03/15 05:56:14;;;;;;;1.80;1.33;;;16.50;52.00;;;;;;4862753;29;20602;-65
2021/03/15 05:58:58;;;;;;;1.20;1.10;;;16.40;52.00;;;;;;4879471;29;20184;-67
2021/03/15 06:01:45;;;;;;;0.77;0.77;;;16.40;51.90;;;;;;4878959;29;20192;-67
2021/03/15 06:04:17;;;;;;;1.27;0.90;;;16.50;52.10;;;;;;4879639;29;20586;-66
2021/03/15 06:06:46;;;;;;;0.98;0.70;;;16.40;52.00;;;;;;4878849;29;20177;-67
2021/03/15 06:09:13;;;;;;;0.70;0.70;;;16.50;52.00;;;;;;4862990;29;20241;-65
2021/03/15 06:11:46;;;;;;;0.80;0.80;;;16.50;52.00;;;;;;4862360;29;20177;-66
2021/03/15 06:14:15;;;;;;;0.93;0.77;;;16.60;52.20;;;;;;4877518;29;20184;-66
2021/03/15 06:16:41;;;;;;;0.98;0.70;;;16.70;52.20;;;;;;4878130;29;20174;-67
2021/03/15 06:19:06;;;;;;;1.23;0.60;;;16.90;52.10;;;;;;4878198;29;20181;-66
2021/03/15 06:21:32;;;;;;;0.82;0.75;;;17.00;51.80;;;;;;4877274;29;20248;-68
2021/03/15 06:24:01;;;;;;;1.23;0.70;;;17.30;51.50;;;;;;4862493;29;20633;-67
2021/03/15 06:26:28;;;;;;;0.90;0.60;;;17.50;51.10;;;;;;4877875;29;20241;-66
2021/03/15 06:28:55;;;;;;;0.70;0.70;;;17.80;50.80;;;;;;4861951;29;20352;-66
2021/03/15 06:31:21;;;;;;;0.73;0.55;;;18.10;50.40;;;;;;4862467;29;20591;-67
2021/03/15 06:33:46;;;;;;;0.88;0.80;;;18.30;49.80;;;;;;4862525;29;20180;-66
2021/03/15 06:36:12;;;;;;;0.60;0.60;;;18.50;49.60;;;;;;4861902;29;20177;-66
2021/03/15 06:38:38;;;;;;;1.50;0.90;;;18.60;49.30;;;;;;4862259;29;20182;-66
2021/03/15 06:41:06;;;;;;;0.90;0.73;;;18.60;49.10;;;;;;4862476;29;20184;-66
2021/03/15 06:43:32;;;;;;;0.98;0.60;;;18.70;49.10;;;;;;4861591;29;20569;-66
2021/03/15 06:45:58;;;;;;;1.08;0.60;;;18.70;49.00;;;;;;4862467;29;20181;-66
2021/03/15 06:48:24;;;;;;;1.42;0.70;;;18.70;49.00;;;;;;4877370;29;20678;-67
2021/03/15 06:50:50;;;;;;;0.98;0.70;;;18.80;48.90;;;;;;4878003;29;20212;-66
2021/03/15 06:53:15;;;;;;;0.60;0.55;;;18.80;48.90;;;;;;4862359;29;20192;-69
2021/03/15 06:55:41;;;;;;;1.80;0.90;;;18.90;48.90;;;;;;4861923;29;20177;-66
2021/03/15 06:58:30;;;;;;;0.70;0.60;;;18.90;48.90;;;;;;4878216;29;20309;-66
2021/03/15 07:01:10;;;;;;;1.35;0.60;;;18.90;48.90;;;;;;4861856;29;20183;-67
2021/03/15 07:03:36;;;;;;;1.55;0.68;;;18.90;48.90;;;;;;4876622;29;20240;-67
2021/03/15 07:06:03;;;;;;;0.98;0.60;;;18.80;49.80;;;;;;4878752;29;20165;-66
2021/03/15 07:08:29;;;;;;;0.77;0.50;;;18.70;49.30;;;;;;4862025;29;20205;-66
2021/03/15 07:10:57;;;;;;;2.22;0.85;;;18.60;49.60;;;;;;4861679;29;20173;-66
2021/03/15 07:13:25;;;;;;;1.55;0.85;;;18.50;49.50;;;;;;4878499;29;20169;-66
2021/03/15 07:15:52;;;;;;;1.42;0.70;;;18.50;49.70;;;;;;4862016;29;20230;-66
2021/03/15 07:18:18;;;;;;;1.70;0.70;;;18.40;49.80;;;;;;4876868;29;20176;-67
2021/03/15 07:20:48;;;;;;;1.15;0.70;;;18.30;50.00;;;;;;4877581;29;20272;-66
2021/03/15 07:23:14;;;;;;;1.33;1.00;;;18.20;50.20;;;;;;4878531;29;20265;-67
2021/03/15 07:25:40;;;;;;;1.00;0.60;;;18.20;50.20;;;;;;4876713;29;20280;-69
2021/03/15 07:28:06;;;;;;;2.53;1.02;;;18.20;50.30;;;;;;4861991;29;20725;-67
2021/03/15 07:30:36;;;;;;;0.88;0.63;;;18.20;50.20;;;;;;4861629;29;20554;-67
2021/03/15 07:33:04;;;;;;;0.77;0.70;;;18.20;50.20;;;;;;4878186;29;20174;-66
2021/03/15 07:35:31;;;;;;;0.77;0.70;;;18.30;50.30;;;;;;4878085;29;20196;-66
2021/03/15 07:37:57;;;;;;;1.00;0.88;;;18.30;50.20;;;;;;4877402;29;20201;-80
2021/03/15 07:40:42;;;;;;;1.02;0.73;;;18.40;50.20;;;;;;4877612;29;20205;-70
2021/03/15 07:43:10;;;;;;;2.33;0.95;;;18.40;50.20;;;;;;4877214;29;20177;-71
2021/03/15 07:45:38;;;;;;;1.60;1.05;;;18.40;50.20;;;;;;4877131;29;20177;-71
2021/03/15 07:48:23;;;;;;;2.63;0.93;;;18.40;50.20;;;;;;4880721;29;20240;-68
2021/03/15 07:51:02;;;;;;;2.17;1.17;;;18.30;50.90;;;;;;4880588;29;20273;-72
2021/03/15 07:53:42;;;;;;;5.38;1.10;;;18.30;50.90;;;;;;4880029;29;20221;-71
2021/03/15 07:56:10;;;;;;;4.25;1.30;;;18.20;51.40;;;;;;4881766;29;20177;-73
2021/03/15 07:58:37;;;;;;;4.45;1.33;;;18.20;51.70;;;;;;4880517;29;20233;-72
2021/03/15 08:01:03;;;;;;;4.10;1.27;;;18.20;52.40;;;;;;4880969;29;20607;-71
2021/03/15 08:03:29;;;;;;;3.88;1.25;;;18.20;52.00;;;;;;4864851;29;20177;-72
2021/03/15 08:05:56;;;;;;;6.00;1.20;;;18.20;52.10;;;;;;4881569;29;20535;-71
2021/03/15 08:08:22;;;;;;;2.20;1.02;;;18.20;52.20;;;;;;4880732;29;20205;-71
2021/03/15 08:10:48;;;;;;;3.25;1.40;;;18.30;52.20;;;;;;4880378;29;20169;-60
2021/03/15 08:13:14;;;;;;;3.28;1.08;;;18.30;52.20;;;;;;4880413;29;20642;-71
2021/03/15 08:15:40;;;;;;;3.50;1.10;;;18.30;52.10;;;;;;4879510;29;20169;-72
2021/03/15 08:18:09;;;;;;;2.20;1.30;;;18.30;52.00;;;;;;4880299;29;20173;-64
2021/03/15 08:20:41;;;;;;;3.17;1.30;;;18.40;52.20;;;;;;4863958;29;20645;-73
2021/03/15 08:23:07;;;;;;;2.70;1.15;;;18.30;52.20;;;;;;4864648;29;20240;-62
2021/03/15 08:25:32;;;;;;;2.67;1.20;;;18.30;52.30;;;;;;4879879;29;20653;-72
2021/03/15 08:28:01;;;;;;;3.38;1.35;;;18.30;52.40;;;;;;4864120;29;20205;-71
2021/03/15 08:30:29;;;;;;;3.03;1.20;;;18.20;52.60;;;;;;4879693;29;20179;-63
2021/03/15 08:32:54;;;;;;;3.83;1.55;;;18.30;52.80;;;;;;4864544;29;20660;-66
2021/03/15 08:35:20;;;;;;;3.85;1.45;;;18.40;52.70;;;;;;4863543;29;20185;-67
2021/03/15 08:37:54;;;;;;;3.70;1.50;;;18.40;52.60;;;;;;4864377;29;20645;-67
2021/03/15 08:40:41;;;;;;;4.10;1.30;;;18.40;52.60;;;;;;4880780;29;20177;-68
2021/03/15 08:43:22;;;;;;;2.58;1.08;;;18.40;52.60;;;;;;4880339;29;20216;-66
2021/03/15 08:46:00;;;;;;;4.40;1.65;;;18.40;52.60;;;;;;4880853;29;20169;-69
2021/03/15 08:48:36;;;;;;;5.65;1.45;;;18.40;52.60;;;;;;4880558;29;20240;-68
2021/03/15 08:51:09;;;;;;;4.72;1.25;;;18.40;52.60;;;;;;4880591;29;20719;-71
2021/03/15 08:53:37;;;;;;;2.28;1.27;;;18.40;52.60;;;;;;4863927;29;20173;-68
2021/03/15 08:56:21;;;;;;;3.03;1.10;;;18.30;52.80;;;;;;4880009;29;20567;-67
2021/03/15 08:58:53;;;;;;;3.30;1.02;;;18.30;53.50;;;;;;4879683;29;20174;-69
2021/03/15 09:01:24;;;;;;;3.85;1.45;;;18.20;53.00;;;;;;4863769;29;20192;-68
2021/03/15 09:04:00;;;;;;;3.13;1.33;;;18.20;53.00;;;;;;4863353;29;20184;-69
2021/03/15 09:06:32;;;;;;;4.60;1.30;;;18.20;52.90;;;;;;4863762;29;20242;-70
2021/03/15 09:08:58;;;;;;;7.60;1.40;;;18.20;52.90;;;;;;4880182;29;20289;-70
2021/03/15 09:11:42;;;;;;;2.75;1.05;;;18.20;52.90;;;;;;4862948;29;20181;-69
2021/03/15 09:14:30;;;;;;;2.70;1.20;;;18.30;52.80;;;;;;4880281;29;20192;-70
2021/03/15 09:16:57;;;;;;;4.13;1.45;;;18.30;52.80;;;;;;4863432;29;20177;-70
2021/03/15 09:19:36;;;;;;;4.47;1.27;;;18.20;52.80;;;;;;4880027;29;20267;-71
2021/03/15 09:22:02;;;;;;;2.35;0.82;;;18.30;52.80;;;;;;4894636;29;20181;-69
2021/03/15 09:24:39;;;;;;;3.45;1.25;;;18.20;52.80;;;;;;4862483;29;20196;-68
2021/03/15 09:27:08;;;;;;;3.13;1.15;;;18.20;52.80;;;;;;4879027;29;20272;-69
2021/03/15 09:29:34;;;;;;;3.35;1.30;;;18.20;52.70;;;;;;4863460;29;20217;-68
2021/03/15 09:32:04;;;;;;;2.80;1.50;;;18.20;52.90;;;;;;4878473;29;20173;-68
2021/03/15 09:34:30;;;;;;;3.58;1.20;;;18.10;52.90;;;;;;4862892;29;20557;-68
2021/03/15 09:36:59;;;;;;;4.65;1.40;;;18.10;53.00;;;;;;4863224;29;20169;-67
2021/03/15 09:39:27;;;;;;;2.72;1.25;;;18.00;52.90;;;;;;4877995;29;20188;-68
2021/03/15 09:41:53;;;;;;;5.82;1.27;;;18.20;52.80;;;;;;4879882;29;20712;-67
2021/03/15 09:44:23;;;;;;;3.08;1.10;;;18.10;53.50;;;;;;4863580;29;20185;-67
2021/03/15 09:46:52;;;;;;;5.05;1.70;;;18.10;52.80;;;;;;4879156;29;20185;-69
2021/03/15 09:49:39;;;;;;;3.92;1.83;;;18.10;52.70;;;;;;4878524;29;20568;-68
2021/03/15 09:52:21;;;;;;;2.53;1.20;;;18.20;52.70;;;;;;4879055;29;20241;-68
2021/03/15 09:54:53;;;;;;;1.73;0.90;;;18.20;52.70;;;;;;4878769;29;20169;-67
2021/03/15 09:57:19;;;;;;;2.33;1.20;;;18.10;52.90;;;;;;4862797;29;20671;-68
2021/03/15 09:59:45;;;;;;;3.25;1.20;;;18.00;52.90;;;;;;4879058;29;20549;-68
2021/03/15 10:02:33;;;;;;;1.95;0.75;;;18.00;53.00;;;;;;4862832;29;20181;-68
2021/03/15 10:04:58;;;;;;;3.17;1.38;;;17.90;53.00;;;;;;4862292;29;20611;-68
2021/03/15 10:07:24;;;;;;;2.33;1.20;;;17.90;53.00;;;;;;4879002;29;20229;-70
2021/03/15 10:09:50;;;;;;;1.98;0.82;;;18.00;52.90;;;;;;4862278;29;20223;-69
2021/03/15 10:12:19;;;;;;;2.38;1.20;;;17.90;52.80;;;;;;4879346;29;20204;-67
2021/03/15 10:14:45;;;;;;;2.42;1.10;;;18.00;52.60;;;;;;4877607;29;20559;-69
2021/03/15 10:17:19;;;;;;;3.47;1.05;;;18.10;53.10;;;;;;4878248;29;20648;-68
2021/03/15 10:19:44;;;;;;;3.25;1.10;;;18.10;52.40;;;;;;4878193;29;20197;-69
2021/03/15 10:22:11;;;;;;;2.13;1.00;;;18.10;52.40;;;;;;4877320;29;20208;-67
2021/03/15 10:24:38;;;;;;;2.20;0.82;;;18.10;52.40;;;;;;4862332;29;20174;-71
2021/03/15 10:27:04;;;;;;;4.57;1.40;;;18.00;52.30;;;;;;4877532;29;20177;-69
2021/03/15 10:29:30;;;;;;;3.30;1.33;;;18.10;52.30;;;;;;4877518;29;20229;-69
2021/03/15 10:31:59;;;;;;;1.83;0.80;;;18.00;52.30;;;;;;4879178;29;20177;-67
2021/03/15 10:34:25;;;;;;;2.42;0.82;;;18.00;52.30;;;;;;4878006;29;20169;-70
2021/03/15 10:36:50;;;;;;;1.52;0.95;;;18.00;52.30;;;;;;4879240;29;20173;-69
2021/03/15 10:39:18;;;;;;;2.70;1.10;;;18.00;52.30;;;;;;4862502;29;20257;-69
2021/03/15 10:41:43;;;;;;;3.08;1.33;;;18.00;52.30;;;;;;4861944;29;20211;-69
2021/03/15 10:44:10;;;;;;;3.03;1.02;;;17.90;52.30;;;;;;4862163;29;20626;-67
2021/03/15 10:46:53;;;;;;;2.30;0.98;;;18.00;52.30;;;;;;4877680;29;20520;-68
2021/03/15 10:49:23;;;;;;;2.25;0.95;;;17.90;52.40;;;;;;4861696;29;20621;-68
2021/03/15 10:51:51;;;;;;;1.70;1.13;;;17.90;53.00;;;;;;4880429;29;20221;-71
2021/03/15 10:54:27;;;;;;;2.05;1.10;;;17.90;52.30;;;;;;4862517;29;20177;-69
2021/03/15 10:57:28;;;;;;;2.65;1.00;;;17.90;52.30;;;;;;4846222;29;20616;-70
2021/03/15 10:59:53;;;;;;;2.50;1.10;;;17.80;52.30;;;;;;4842715;29;20219;-68
2021/03/15 11:02:28;;;;;;;2.17;1.05;;;17.80;52.30;;;;;;4873677;29;20224;-69
2021/03/15 11:04:56;;;;;;;2.28;1.30;;;17.80;52.40;;;;;;4878498;29;20176;-70
2021/03/15 11:07:35;;;;;;;2.85;0.93;;;17.80;52.30;;;;;;4877629;29;20645;-70
2021/03/15 11:10:04;;;;;;;2.33;1.08;;;17.90;52.20;;;;;;4861542;29;20197;-69
2021/03/15 11:12:41;;;;;;;1.15;0.73;;;18.00;52.20;;;;;;4878463;29;20175;-71
2021/03/15 11:15:13;;;;;;;2.00;1.10;;;17.90;52.20;;;;;;4877462;29;20530;-69
2021/03/15 11:17:43;;;;;;;1.88;0.95;;;17.80;52.20;;;;;;4877932;29;20182;-70
2021/03/15 11:20:11;;;;;;;2.47;1.00;;;17.80;52.20;;;;;;4877813;29;20598;-72
2021/03/15 11:22:49;;;;;;;3.03;1.08;;;17.80;52.20;;;;;;4849963;29;20213;-69
2021/03/15 11:25:15;;;;;;;1.65;1.00;;;17.80;52.30;;;;;;4881677;29;20177;-68
2021/03/15 11:27:46;;;;;;;2.22;0.90;;;17.80;52.30;;;;;;4882133;29;20512;-66
2021/03/15 11:30:22;;;;;;;3.38;1.15;;;17.80;52.30;;;;;;4885236;29;20237;-79
2021/03/15 11:32:47;;;;;;;4.55;1.30;;;17.80;53.00;;;;;;4874214;29;20527;-67
2021/03/15 11:35:22;;;;;;;2.28;1.05;;;18.00;52.20;;;;;;4891421;29;20176;-73
2021/03/15 11:37:48;;;;;;;2.22;1.00;;;18.00;52.10;;;;;;4879643;29;20199;-66
2021/03/15 11:40:15;;;;;;;4.50;1.50;;;17.90;52.20;;;;;;4900870;29;20183;-71
2021/03/15 11:42:40;;;;;;;2.15;1.10;;;18.00;52.20;;;;;;4883600;29;20264;-66
2021/03/15 11:45:07;;;;;;;3.72;1.08;;;18.10;52.10;;;;;;4899933;29;20605;-75
2021/03/15 11:47:32;;;;;;;4.55;1.17;;;18.10;52.00;;;;;;4900485;29;20172;-74
2021/03/15 11:49:58;;;;;;;2.60;1.13;;;18.20;52.00;;;;;;4883923;29;20259;-77
2021/03/15 11:52:27;;;;;;;3.38;0.98;;;18.10;52.10;;;;;;4899844;29;20315;-69
2021/03/15 11:54:53;;;;;;;2.33;1.00;;;18.20;52.20;;;;;;4868425;29;20185;-74
2021/03/15 11:57:19;;;;;;;4.35;1.13;;;18.40;52.20;;;;;;4883624;29;20703;-66
2021/03/15 11:59:44;;;;;;;3.95;1.40;;;18.40;52.20;;;;;;4899600;29;20599;-72
2021/03/15 12:02:10;;;;;;;5.68;0.88;;;18.40;52.00;;;;;;4900390;29;20232;-80
2021/03/15 12:04:36;;;;;;;4.05;0.90;;;18.50;52.00;;;;;;4883473;29;20214;-74
2021/03/15 12:07:02;;;;;;;2.97;0.82;;;18.50;52.00;;;;;;4882810;29;20648;-78
2021/03/15 12:09:28;;;;;;;1.30;0.70;;;18.60;51.90;;;;;;4900375;29;20259;-86
2021/03/15 12:11:53;;;;;;;2.72;0.77;;;18.60;51.80;;;;;;4883561;29;20644;-78
2021/03/15 12:14:19;;;;;;;3.88;1.30;;;18.60;51.80;;;;;;4882516;29;20184;-67
2021/03/15 12:16:44;;;;;;;3.00;1.20;;;18.50;52.00;;;;;;4868200;29;20666;-69
2021/03/15 12:19:12;;;;;;;3.92;1.27;;;18.50;52.10;;;;;;4899897;29;20207;-71
2021/03/15 12:21:38;;;;;;;2.83;1.33;;;18.50;52.10;;;;;;4899283;29;20176;-72
2021/03/15 12:24:04;;;;;;;2.05;0.98;;;18.40;52.10;;;;;;4882895;29;20176;-70
2021/03/15 12:26:30;;;;;;;3.45;1.17;;;18.30;52.20;;;;;;4898193;29;20652;-73
2021/03/15 12:28:56;;;;;;;4.80;0.98;;;18.30;52.20;;;;;;4899563;29;20298;-73
2021/03/15 12:31:22;;;;;;;2.40;1.05;;;18.40;52.20;;;;;;4899316;29;20176;-69
2021/03/15 12:33:47;;;;;;;8.70;1.20;;;18.50;52.10;;;;;;4898977;29;20267;-66
2021/03/15 12:36:15;;;;;;;3.65;0.93;;;18.50;51.90;;;;;;4899386;29;20665;-70
2021/03/15 12:38:40;;;;;;;3.60;1.08;;;18.40;52.00;;;;;;4899362;29;20280;-72
2021/03/15 12:41:06;;;;;;;3.15;1.50;;;18.40;52.20;;;;;;4898994;29;20689;-68
2021/03/15 12:43:31;;;;;;;2.22;1.10;;;18.30;52.30;;;;;;4899201;29;20185;-67
2021/03/15 12:45:57;;;;;;;5.15;1.50;;;18.30;52.40;;;;;;4899632;29;20185;-71
2021/03/15 12:48:22;;;;;;;3.53;1.00;;;18.20;52.40;;;;;;4898815;29;20246;-67
2021/03/15 12:50:48;;;;;;;5.40;1.50;;;18.20;52.40;;;;;;4899476;29;20177;-69
2021/03/15 12:53:14;;;;;;;3.05;0.90;;;18.10;52.60;;;;;;4883293;29;20180;-71
2021/03/15 12:55:39;;;;;;;3.90;1.08;;;18.10;52.60;;;;;;4898539;29;20255;-70
2021/03/15 12:58:05;;;;;;;3.78;1.25;;;18.00;52.60;;;;;;4899526;29;20179;-68